Time;durP1;ratioP1;P1;durP2;ratioP2;P2;SDS_P1;SDS_P2;PMS_P1;PMS_P2;Temp;Humidity;BMP_temperature;BMP_pressure;BME280_temperature;BME280_humidity;BME280_pressure;Samples;Min_cycle;Max_cycle;Signal;HPM_P1;HPM_P2
2022/12/18 00:02:06;;;;;;;74.40;32.22;;;;;;;-7.13;100.00;102778.94;5253913;28;20025;-87
2022/12/18 00:04:38;;;;;;;74.30;31.33;;;;;;;-7.15;100.00;102771.97;5261036;28;20044;-87
2022/12/18 00:07:09;;;;;;;78.55;31.58;;;;;;;-7.26;100.00;102772.75;5281447;28;20045;-86
2022/12/18 00:09:40;;;;;;;75.97;31.50;;;;;;;-7.31;100.00;102773.50;5273177;28;20040;-86
2022/12/18 00:12:12;;;;;;;82.45;33.47;;;;;;;-7.29;100.00;102787.34;5254130;28;20136;-86
2022/12/18 00:14:43;;;;;;;79.50;31.77;;;;;;;-7.32;100.00;102767.47;5252612;28;20021;-86
2022/12/18 00:17:15;;;;;;;81.63;32.30;;;;;;;-7.26;100.00;102771.84;5250418;28;20109;-86
2022/12/18 00:19:46;;;;;;;80.40;31.30;;;;;;;-7.24;100.00;102777.91;5242242;28;20087;-87
2022/12/18 00:25:12;;;;;;;83.10;32.63;;;;;;;-7.26;100.00;102751.09;5246869;28;20489;-86
2022/12/18 00:27:43;;;;;;;90.07;36.65;;;;;;;-7.17;100.00;102755.53;5242386;28;20037;-86
2022/12/18 00:30:15;;;;;;;83.57;32.60;;;;;;;-7.18;100.00;102736.50;5236649;28;20087;-86
2022/12/18 00:32:46;;;;;;;85.95;35.13;;;;;;;-7.17;100.00;102725.28;5245621;28;20064;-86
2022/12/18 00:35:18;;;;;;;79.57;34.40;;;;;;;-7.14;100.00;102730.50;5263077;28;20120;-87
2022/12/18 00:37:49;;;;;;;85.50;35.20;;;;;;;-7.11;100.00;102737.44;5266069;28;20029;-87
2022/12/18 00:40:21;;;;;;;79.95;33.40;;;;;;;-7.08;100.00;102729.69;5247246;28;20102;-87
2022/12/18 00:42:55;;;;;;;82.03;35.08;;;;;;;-7.04;100.00;102728.88;5265468;28;20485;-86
2022/12/18 00:45:29;;;;;;;86.70;36.75;;;;;;;-7.05;100.00;102730.59;5244780;28;20026;-87
2022/12/18 00:48:00;;;;;;;81.05;34.28;;;;;;;-7.06;100.00;102733.19;5244015;28;20166;-87
2022/12/18 00:50:32;;;;;;;86.97;34.83;;;;;;;-7.10;100.00;102736.56;5246065;28;20037;-87
2022/12/18 00:53:04;;;;;;;79.75;32.70;;;;;;;-7.17;100.00;102735.66;5247628;28;20041;-86
2022/12/18 00:55:37;;;;;;;72.68;32.70;;;;;;;-7.17;100.00;102730.47;5255583;28;20029;-87
2022/12/18 00:58:10;;;;;;;77.53;32.63;;;;;;;-7.17;100.00;102730.47;5249462;28;20025;-87
2022/12/18 01:00:42;;;;;;;79.68;33.58;;;;;;;-7.21;100.00;102736.47;5265372;28;20030;-86
2022/12/18 01:03:14;;;;;;;76.47;32.40;;;;;;;-7.25;100.00;102734.69;5244458;28;20030;-86
2022/12/18 01:05:45;;;;;;;81.32;32.30;;;;;;;-7.27;100.00;102736.41;5245578;28;20021;-87
2022/12/18 01:08:17;;;;;;;81.45;34.22;;;;;;;-7.26;100.00;102732.94;5263619;28;20044;-87
2022/12/18 01:10:48;;;;;;;80.78;35.65;;;;;;;-7.25;100.00;102739.88;5254310;28;20068;-87
2022/12/18 01:13:20;;;;;;;74.25;31.40;;;;;;;-7.28;100.00;102753.66;5265315;28;20216;-86
2022/12/18 01:15:52;;;;;;;72.82;31.35;;;;;;;-7.26;100.00;102751.09;5266628;28;20084;-86
2022/12/18 01:18:23;;;;;;;74.57;31.65;;;;;;;-7.30;100.00;102757.13;5268961;28;20021;-86
2022/12/18 01:20:55;;;;;;;76.20;29.08;;;;;;;-7.34;100.00;102758.78;5249715;28;20099;-86
2022/12/18 01:23:26;;;;;;;75.22;30.70;;;;;;;-7.31;100.00;102763.13;5242078;28;20398;-86
2022/12/18 01:25:58;;;;;;;76.78;33.22;;;;;;;-7.34;100.00;102758.78;5246633;28;20083;-87
2022/12/18 01:28:29;;;;;;;76.38;31.45;;;;;;;-7.33;100.00;102759.66;5263446;28;20056;-87
2022/12/18 01:31:21;;;;;;;65.88;30.42;;;;;;;-7.30;100.00;102752.78;5263717;28;20029;-87
2022/12/18 01:33:53;;;;;;;69.20;29.85;;;;;;;-7.26;100.00;102753.69;5246150;28;20036;-86
2022/12/18 01:36:27;;;;;;;65.70;28.75;;;;;;;-7.27;100.00;102750.22;5252805;28;20029;-87
2022/12/18 01:39:00;;;;;;;76.53;33.42;;;;;;;-7.23;100.00;102749.41;5257476;28;20068;-87
2022/12/18 01:44:45;;;;;;;62.22;28.02;;;;;;;-7.17;100.00;102743.44;5265037;28;20081;-87
2022/12/18 01:47:23;;;;;;;64.25;29.75;;;;;;;-7.19;100.00;102749.44;5249998;28;20033;-87
2022/12/18 01:49:57;;;;;;;71.13;28.60;;;;;;;-7.19;100.00;102742.53;5243944;28;20080;-87
2022/12/18 01:52:31;;;;;;;62.53;27.15;;;;;;;-7.15;100.00;102752.09;5263105;28;20022;-87
2022/12/18 01:55:05;;;;;;;64.90;28.52;;;;;;;-7.15;100.00;102748.63;5252242;28;20080;-87
2022/12/18 01:57:39;;;;;;;64.18;28.50;;;;;;;-7.16;100.00;102747.75;5259591;28;20394;-87
2022/12/18 02:00:18;;;;;;;65.53;28.08;;;;;;;-7.23;100.00;102743.34;5245229;28;20029;-87
2022/12/18 02:02:50;;;;;;;57.28;26.23;;;;;;;-7.23;100.00;102733.00;5260825;28;20109;-87
2022/12/18 02:05:29;;;;;;;58.75;26.88;;;;;;;-7.21;100.00;102736.47;5245358;28;20116;-86
2022/12/18 02:08:33;;;;;;;60.63;27.13;;;;;;;-7.24;100.00;102732.13;5255524;28;20041;-87
2022/12/18 02:11:14;;;;;;;58.05;28.00;;;;;;;-7.27;100.00;102732.09;5262292;28;20013;-86
2022/12/18 02:14:07;;;;;;;61.42;27.45;;;;;;;-7.33;100.00;102720.75;5253978;28;20022;-87
2022/12/18 02:16:56;;;;;;;56.85;26.88;;;;;;;-7.32;100.00;102733.75;5260507;28;20068;-87
2022/12/18 02:19:47;;;;;;;60.10;26.80;;;;;;;-7.38;100.00;102728.50;5262572;28;20025;-87
2022/12/18 02:22:30;;;;;;;57.60;27.23;;;;;;;-7.37;100.00;102729.38;5244849;28;20018;-87
2022/12/18 02:25:22;;;;;;;62.55;27.10;;;;;;;-7.39;100.00;102731.94;5240248;28;20398;-87
2022/12/18 02:27:58;;;;;;;65.30;27.58;;;;;;;-7.40;100.00;102732.78;5238411;28;20051;-87
2022/12/18 02:30:31;;;;;;;;;;;;;;;-7.42;100.00;102732.75;5244707;28;20041;-87
2022/12/18 02:33:07;;;;;;;54.40;24.67;;;;;;;-7.47;100.00;102724.09;5261679;28;19917;-87
2022/12/18 02:35:41;;;;;;;53.10;24.55;;;;;;;-7.55;100.00;102725.69;5262863;28;20038;-87
2022/12/18 02:38:14;;;;;;;52.75;25.60;;;;;;;-7.54;100.00;102726.56;5270273;28;20079;-87
2022/12/18 02:40:46;;;;;;;58.20;25.80;;;;;;;-7.53;100.00;102728.31;5292492;28;20055;-86
2022/12/18 02:43:18;;;;;;;58.60;26.35;;;;;;;-7.53;100.00;102723.13;5277064;28;20041;-87
2022/12/18 02:45:53;;;;;;;55.35;26.02;;;;;;;-7.52;100.00;102714.47;5264565;28;20017;-87
2022/12/18 02:48:31;;;;;;;55.10;25.92;;;;;;;-7.58;100.00;102711.84;5262427;28;20123;-87
2022/12/18 02:51:10;;;;;;;57.33;25.65;;;;;;;-7.58;100.00;102702.31;5273143;28;20037;-87
2022/12/18 02:53:53;;;;;;;58.15;25.50;;;;;;;-7.54;100.00;102703.22;5262569;28;20525;-87
2022/12/18 02:56:35;;;;;;;50.55;25.23;;;;;;;-7.54;100.00;102704.09;5273820;28;20037;-87
2022/12/18 02:59:13;;;;;;;51.20;23.98;;;;;;;-7.55;100.00;102707.56;5257680;28;20060;-87
2022/12/18 03:02:03;;;;;;;51.28;24.30;;;;;;;-7.60;100.00;102699.72;5259030;28;20100;-87
2022/12/18 03:04:49;;;;;;;54.08;24.20;;;;;;;-7.62;100.00;102704.00;5245094;28;20137;-87
2022/12/18 03:07:27;;;;;;;53.33;23.00;;;;;;;-7.61;100.00;102698.00;5275686;28;20457;-87
2022/12/18 03:10:01;;;;;;;48.97;23.70;;;;;;;-7.67;100.00;102684.94;5259977;28;20037;-87
2022/12/18 03:12:37;;;;;;;50.03;24.00;;;;;;;-7.59;100.00;102687.59;5262723;28;20028;-87
2022/12/18 03:15:12;;;;;;;;;;;;;;;-7.62;100.00;102690.19;5257216;28;20474;-87
2022/12/18 03:17:48;;;;;;;47.75;22.83;;;;;;;-7.66;100.00;102678.03;5281342;28;19932;-87
2022/12/18 03:20:21;;;;;;;;;;;;;;;-7.65;100.00;102683.22;5275958;28;20030;-87
2022/12/18 03:22:59;;;;;;;46.05;22.90;;;;;;;-7.67;100.00;102682.34;5260403;28;19916;-87
2022/12/18 03:25:33;;;;;;;49.35;23.25;;;;;;;-7.68;100.00;102680.63;5273943;28;20029;-87
2022/12/18 03:28:09;;;;;;;48.47;24.75;;;;;;;-7.63;100.00;102689.28;5260487;28;20530;-86
2022/12/18 03:30:45;;;;;;;47.00;22.95;;;;;;;-7.55;100.00;102683.38;5261410;28;20113;-86
2022/12/18 03:33:23;;;;;;;54.40;23.73;;;;;;;-7.59;100.00;102695.38;5277971;28;20390;-86
2022/12/18 03:35:55;;;;;;;43.20;21.50;;;;;;;-7.58;100.00;102691.97;5258869;28;20288;-87
2022/12/18 03:38:26;;;;;;;42.08;23.48;;;;;;;-7.60;100.00;102698.84;5260789;28;20385;-87
2022/12/18 03:41:26;;;;;;;46.95;23.48;;;;;;;-7.60;100.00;102697.13;5259537;28;20034;-86
2022/12/18 03:44:22;;;;;;;50.80;23.48;;;;;;;-7.61;100.00;102692.81;5259282;28;20108;-86
2022/12/18 03:47:12;;;;;;;52.78;23.83;;;;;;;-7.60;100.00;102685.88;5258953;28;20026;-86
2022/12/18 03:49:55;;;;;;;41.53;22.48;;;;;;;-7.60;100.00;102676.38;5259373;28;20144;-86
2022/12/18 03:52:35;;;;;;;44.70;21.23;;;;;;;-7.63;100.00;102680.66;5276750;28;20071;-86
2022/12/18 03:55:08;;;;;;;47.00;22.73;;;;;;;-7.66;100.00;102678.03;5259192;28;20064;-86
2022/12/18 03:57:42;;;;;;;44.28;21.88;;;;;;;-7.65;100.00;102667.69;5262760;28;20025;-87
2022/12/18 04:00:17;;;;;;;44.35;22.75;;;;;;;-7.65;100.00;102662.50;5267383;28;20075;-87
2022/12/18 04:02:52;;;;;;;39.60;21.70;;;;;;;-7.63;100.00;102655.59;5276201;28;20167;-87
2022/12/18 04:05:26;;;;;;;48.53;23.35;;;;;;;-7.66;100.00;102644.34;5275137;28;20017;-86
2022/12/18 04:07:58;;;;;;;43.92;22.33;;;;;;;-7.66;100.00;102639.16;5261980;28;20049;-86
2022/12/18 04:10:30;;;;;;;47.00;22.55;;;;;;;-7.65;100.00;102646.09;5260544;28;20033;-86
2022/12/18 04:13:01;;;;;;;47.72;24.08;;;;;;;-7.66;100.00;102637.44;5259155;28;20018;-86
2022/12/18 04:15:37;;;;;;;45.97;22.40;;;;;;;-7.60;100.00;102644.41;5262724;28;20168;-86
2022/12/18 04:18:08;;;;;;;49.30;25.02;;;;;;;-7.57;100.00;102631.50;5260939;28;20022;-86
2022/12/18 04:20:40;;;;;;;46.55;22.38;;;;;;;-7.58;100.00;102631.47;5276058;28;20040;-86
2022/12/18 04:23:11;;;;;;;43.53;23.73;;;;;;;-7.56;100.00;102627.19;5259929;28;20026;-86
2022/12/18 04:25:43;;;;;;;45.03;23.25;;;;;;;-7.57;100.00;102617.66;5275691;28;20040;-87
2022/12/18 04:28:14;;;;;;;40.70;21.65;;;;;;;-7.60;100.00;102621.94;5258792;28;20616;-86
2022/12/18 04:30:45;;;;;;;46.85;22.17;;;;;;;-7.62;100.00;102643.53;5267714;28;20041;-86
2022/12/18 04:33:17;;;;;;;46.58;22.13;;;;;;;-7.66;100.00;102642.63;5260354;28;20026;-86
2022/12/18 04:35:48;;;;;;;48.25;21.75;;;;;;;-7.69;100.00;102640.00;5258655;28;20442;-86
2022/12/18 04:38:19;;;;;;;41.17;21.92;;;;;;;-7.69;100.00;102650.38;5259556;28;20049;-86
2022/12/18 04:40:51;;;;;;;40.08;21.05;;;;;;;-7.70;100.00;102648.59;5260426;28;20057;-87
2022/12/18 04:43:22;;;;;;;38.78;21.08;;;;;;;-7.70;100.00;102651.19;5259427;28;20057;-86
2022/12/18 04:46:01;;;;;;;38.55;20.38;;;;;;;-7.71;100.00;102654.66;5258635;28;20028;-86
2022/12/18 04:48:33;;;;;;;40.40;20.45;;;;;;;-7.72;100.00;102660.69;5258497;28;20033;-87
2022/12/18 04:51:05;;;;;;;44.85;20.05;;;;;;;-7.79;100.00;102666.66;5255562;28;20434;-86
2022/12/18 04:53:37;;;;;;;37.83;19.67;;;;;;;-7.84;100.00;102674.34;5271201;28;20025;-86
2022/12/18 04:56:11;;;;;;;41.30;21.33;;;;;;;-7.85;100.00;102674.34;5274798;28;20014;-86
2022/12/18 04:58:43;;;;;;;35.75;19.10;;;;;;;-7.90;100.00;102683.78;5275638;28;20049;-87
2022/12/18 05:01:17;;;;;;;42.75;19.52;;;;;;;-8.03;100.00;102668.09;5271847;28;20380;-86
2022/12/18 05:03:50;;;;;;;39.53;19.67;;;;;;;-8.01;100.00;102674.16;5257683;28;20053;-86
2022/12/18 05:06:22;;;;;;;39.97;19.30;;;;;;;-8.06;100.00;102674.94;5257273;28;20030;-86
2022/12/18 05:08:53;;;;;;;38.67;19.50;;;;;;;-8.08;100.00;102668.84;5258885;28;20111;-87
2022/12/18 05:11:25;;;;;;;33.17;18.13;;;;;;;-8.11;100.00;102674.00;5273221;28;20026;-86
2022/12/18 05:13:56;;;;;;;33.60;17.80;;;;;;;-8.10;100.00;102686.94;5254787;28;20112;-86
2022/12/18 05:16:28;;;;;;;37.30;17.55;;;;;;;-8.08;100.00;102677.50;5271519;28;20033;-86
2022/12/18 05:18:59;;;;;;;37.22;18.13;;;;;;;-8.11;100.00;102672.28;5271517;28;20042;-86
2022/12/18 05:21:31;;;;;;;35.75;19.55;;;;;;;-8.12;100.00;102670.53;5260297;28;20029;-86
2022/12/18 05:24:02;;;;;;;37.60;18.20;;;;;;;-8.08;100.00;102671.44;5262162;28;20037;-86
2022/12/18 05:26:34;;;;;;;36.13;18.20;;;;;;;-8.00;100.00;102662.91;5258726;28;20506;-86
2022/12/18 05:29:06;;;;;;;38.50;19.25;;;;;;;-7.95;100.00;102672.50;5264849;28;20037;-85
2022/12/18 05:31:38;;;;;;;34.63;18.67;;;;;;;-7.92;100.00;102669.91;5269503;28;20493;-85
2022/12/18 05:34:10;;;;;;;38.40;17.23;;;;;;;-7.93;100.00;102669.06;5259126;28;20582;-86
2022/12/18 05:36:41;;;;;;;31.55;17.02;;;;;;;-7.99;100.00;102669.84;5261719;28;20164;-85
2022/12/18 05:39:13;;;;;;;33.60;17.55;;;;;;;-7.99;100.00;102666.41;5263127;28;20059;-86
2022/12/18 05:41:44;;;;;;;36.92;17.75;;;;;;;-7.99;100.00;102663.81;5266420;28;20049;-86
2022/12/18 05:44:16;;;;;;;39.25;17.10;;;;;;;-7.99;100.00;102654.31;5277986;28;20449;-86
2022/12/18 05:46:47;;;;;;;37.50;18.13;;;;;;;-7.94;100.00;102658.66;5260832;28;20215;-87
2022/12/18 05:49:18;;;;;;;32.78;17.67;;;;;;;-7.93;100.00;102650.91;5258479;28;20038;-87
2022/12/18 05:51:50;;;;;;;33.42;18.83;;;;;;;-7.90;100.00;102652.69;5276576;28;20096;-86
2022/12/18 05:54:21;;;;;;;34.67;18.50;;;;;;;-7.92;100.00;102649.19;5260307;28;20084;-87
2022/12/18 05:56:53;;;;;;;35.80;18.45;;;;;;;-7.91;100.00;102649.22;5261656;28;20394;-85
2022/12/18 05:59:25;;;;;;;37.60;17.17;;;;;;;-7.87;100.00;102648.44;5275059;28;20073;-85
2022/12/18 06:01:56;;;;;;;32.55;16.10;;;;;;;-7.93;100.00;102637.09;5258910;28;20065;-87
2022/12/18 06:04:28;;;;;;;36.67;18.65;;;;;;;-7.93;100.00;102650.06;5260022;28;20116;-87
2022/12/18 06:07:00;;;;;;;36.78;17.75;;;;;;;-8.00;100.00;102646.50;5258914;28;20040;-86
2022/12/18 06:09:31;;;;;;;36.17;17.63;;;;;;;-8.00;100.00;102637.00;5275946;28;20032;-85
2022/12/18 06:12:03;;;;;;;31.98;17.35;;;;;;;-8.04;100.00;102640.44;5258998;28;20028;-86
2022/12/18 06:14:34;;;;;;;33.72;17.27;;;;;;;-8.10;100.00;102649.81;5258397;28;20067;-85
2022/12/18 06:17:06;;;;;;;34.30;16.70;;;;;;;-8.10;100.00;102655.88;5257286;28;20029;-85
2022/12/18 06:19:38;;;;;;;38.85;17.83;;;;;;;-8.09;100.00;102662.81;5262712;28;20402;-86
2022/12/18 06:22:09;;;;;;;35.22;17.92;;;;;;;-8.09;100.00;102655.03;5259668;28;20442;-86
2022/12/18 06:24:40;;;;;;;36.80;18.08;;;;;;;-8.06;100.00;102647.31;5258938;28;20113;-86
2022/12/18 06:27:12;;;;;;;37.30;19.17;;;;;;;-8.08;100.00;102653.31;5275633;28;20053;-86
2022/12/18 06:29:43;;;;;;;30.80;16.52;;;;;;;-8.05;100.00;102648.16;5259591;28;20030;-85
2022/12/18 06:32:15;;;;;;;35.15;17.27;;;;;;;-8.02;100.00;102654.25;5263070;28;20034;-85
2022/12/18 06:34:46;;;;;;;34.38;17.80;;;;;;;-8.02;100.00;102646.50;5270193;28;20032;-85
2022/12/18 06:37:18;;;;;;;35.78;17.75;;;;;;;-8.05;100.00;102651.63;5276323;28;20061;-86
2022/12/18 06:39:49;;;;;;;34.55;17.70;;;;;;;-8.08;100.00;102642.94;5282141;28;20034;-86
2022/12/18 06:42:20;;;;;;;35.67;17.63;;;;;;;-8.12;100.00;102634.25;5273288;28;20022;-86
2022/12/18 06:44:52;;;;;;;36.67;18.95;;;;;;;-8.13;100.00;102626.47;5264591;28;20152;-85
2022/12/18 06:47:23;;;;;;;31.08;18.15;;;;;;;-8.11;100.00;102637.75;5262539;28;20037;-85
2022/12/18 06:49:55;;;;;;;35.60;18.80;;;;;;;-8.11;100.00;102625.66;5277514;28;20029;-86
2022/12/18 06:52:27;;;;;;;35.28;17.80;;;;;;;-8.06;100.00;102626.59;5261896;28;20033;-86
2022/12/18 06:54:58;;;;;;;36.28;19.67;;;;;;;-8.05;100.00;102628.31;5261153;28;20026;-86
2022/12/18 06:57:30;;;;;;;36.70;19.58;;;;;;;-8.03;100.00;102628.34;5261126;28;20026;-86
2022/12/18 07:00:02;;;;;;;34.88;19.00;;;;;;;-8.02;100.00;102635.28;5261291;28;20036;-86
2022/12/18 07:02:34;;;;;;;38.22;20.45;;;;;;;-8.02;100.00;102632.69;5264132;28;20030;-86
2022/12/18 07:05:06;;;;;;;37.75;18.70;;;;;;;-8.03;100.00;102634.41;5261414;28;20084;-86
2022/12/18 07:07:37;;;;;;;41.42;19.08;;;;;;;-8.00;100.00;102629.25;5255194;28;20042;-86
2022/12/18 07:10:09;;;;;;;35.05;18.75;;;;;;;-7.99;100.00;102633.59;5255870;28;20029;-86
2022/12/18 07:12:41;;;;;;;42.35;19.38;;;;;;;-7.96;100.00;102619.78;5257627;28;20037;-87
2022/12/18 07:15:12;;;;;;;39.75;19.25;;;;;;;-7.93;100.00;102612.06;5266157;28;20032;-86
2022/12/18 07:17:43;;;;;;;36.85;21.75;;;;;;;-7.90;100.00;102603.47;5268338;28;20026;-86
2022/12/18 07:20:15;;;;;;;36.28;19.60;;;;;;;-7.89;100.00;102602.59;5266407;28;20022;-86
2022/12/18 07:22:46;;;;;;;39.30;19.08;;;;;;;-7.87;100.00;102594.03;5270343;28;20040;-86
2022/12/18 07:25:18;;;;;;;38.42;20.10;;;;;;;-7.85;100.00;102574.19;5268843;28;20027;-87
2022/12/18 07:27:49;;;;;;;40.45;20.13;;;;;;;-7.77;100.00;102565.63;5267099;28;20135;-86
2022/12/18 07:30:21;;;;;;;41.08;20.50;;;;;;;-7.72;100.00;102562.22;5267322;28;20073;-87
2022/12/18 07:32:52;;;;;;;38.88;19.63;;;;;;;-7.74;100.00;102563.94;5265407;28;20060;-87
2022/12/18 07:35:24;;;;;;;37.67;19.75;;;;;;;-7.73;100.00;102563.09;5266364;28;20014;-87
2022/12/18 07:37:55;;;;;;;35.63;17.80;;;;;;;-7.68;100.00;102576.97;5270268;28;20316;-87
2022/12/18 07:40:26;;;;;;;34.72;19.13;;;;;;;-7.62;100.00;102563.19;5262632;28;20029;-87
2022/12/18 07:42:58;;;;;;;37.15;20.15;;;;;;;-7.55;100.00;102559.81;5263024;28;20049;-87
2022/12/18 07:45:29;;;;;;;40.72;21.67;;;;;;;-7.45;100.00;102551.28;5268603;28;20021;-87
2022/12/18 07:48:01;;;;;;;41.90;20.50;;;;;;;-7.35;100.00;102541.84;5263480;28;20029;-87
2022/12/18 07:50:32;;;;;;;39.65;21.27;;;;;;;-7.27;100.00;102540.19;5279357;28;20114;-86
2022/12/18 07:53:04;;;;;;;43.38;23.63;;;;;;;-7.21;100.00;102539.34;5263835;28;20025;-87
2022/12/18 07:55:36;;;;;;;37.45;21.10;;;;;;;-7.15;100.00;102534.25;5258518;28;20552;-87
2022/12/18 07:58:07;;;;;;;39.00;22.27;;;;;;;-7.07;100.00;102527.34;5261976;28;20021;-87
2022/12/18 08:00:39;;;;;;;36.72;19.13;;;;;;;-7.01;100.00;102515.28;5260356;28;20052;-87
2022/12/18 08:03:13;;;;;;;38.90;21.45;;;;;;;-6.97;100.00;102523.13;5285737;28;20029;-87
2022/12/18 08:05:45;;;;;;;37.05;20.20;;;;;;;-6.89;100.00;102537.03;5273350;28;20061;-87
2022/12/18 08:08:16;;;;;;;36.05;20.45;;;;;;;-6.86;100.00;102531.81;5273112;28;20125;-87
2022/12/18 08:10:48;;;;;;;40.60;19.88;;;;;;;-6.71;100.00;102546.66;5270973;28;20028;-87
2022/12/18 08:13:19;;;;;;;38.40;21.38;;;;;;;-6.62;100.00;102539.78;5266678;28;20071;-85
2022/12/18 08:16:03;;;;;;;39.65;21.85;;;;;;;-6.50;100.00;102532.06;5273577;28;20040;-86
2022/12/18 08:18:36;;;;;;;40.13;21.80;;;;;;;-6.41;100.00;102533.84;5270315;28;20045;-86
2022/12/18 08:21:20;;;;;;;36.63;19.48;;;;;;;-6.34;100.00;102541.66;5271951;28;20018;-86
2022/12/18 08:23:53;;;;;;;38.67;21.50;;;;;;;-6.24;100.00;102549.47;5280210;28;20021;-86
2022/12/18 08:26:27;;;;;;;38.88;22.88;;;;;;;-6.18;100.00;102545.19;5303659;28;20041;-85
2022/12/18 08:28:59;;;;;;;39.63;21.30;;;;;;;-6.05;100.00;102550.44;5268864;28;20030;-86
2022/12/18 08:31:31;;;;;;;40.28;22.45;;;;;;;-5.96;100.00;102534.84;5287236;28;20032;-86
2022/12/18 08:34:02;;;;;;;38.88;21.83;;;;;;;-5.88;100.00;102539.19;5271890;28;20030;-86
2022/12/18 08:36:34;;;;;;;37.72;20.48;;;;;;;-5.80;100.00;102549.63;5284028;28;20045;-86
2022/12/18 08:39:06;;;;;;;38.70;20.52;;;;;;;-5.72;100.00;102542.69;5262602;28;20056;-86
2022/12/18 08:41:37;;;;;;;36.58;22.17;;;;;;;-5.64;100.00;102540.13;5270141;28;20033;-86
2022/12/18 08:46:59;;;;;;;38.67;21.40;;;;;;;-5.50;100.00;102524.53;5274394;28;20510;-86
2022/12/18 08:49:31;;;;;;;33.95;21.00;;;;;;;-5.45;100.00;102522.81;5265283;28;20083;-86
2022/12/18 08:52:03;;;;;;;33.38;19.13;;;;;;;-5.37;100.00;102526.25;5263498;28;20025;-86
2022/12/18 08:54:34;;;;;;;34.30;19.50;;;;;;;-5.29;100.00;102530.59;5262504;28;20018;-86
2022/12/18 08:57:06;;;;;;;33.40;19.67;;;;;;;-5.22;100.00;102528.03;5285360;28;20033;-87
2022/12/18 08:59:38;;;;;;;34.38;19.80;;;;;;;-5.11;100.00;102519.34;5263603;28;20017;-87
2022/12/18 09:02:10;;;;;;;32.17;19.13;;;;;;;-5.04;100.00;102508.06;5264234;28;20029;-87
2022/12/18 09:04:41;;;;;;;32.33;18.42;;;;;;;-4.96;100.00;102506.28;5268874;28;20518;-87
2022/12/18 09:07:13;;;;;;;33.90;19.83;;;;;;;-4.89;100.00;102508.03;5286239;28;20025;-87
2022/12/18 09:09:44;;;;;;;32.40;18.30;;;;;;;-4.73;100.00;102526.22;5267274;28;20025;-86
2022/12/18 09:12:16;;;;;;;30.42;19.17;;;;;;;-4.66;100.00;102536.63;5267346;28;20029;-86
2022/12/18 09:14:47;;;;;;;37.42;19.63;;;;;;;-4.58;100.00;102542.66;5271490;28;20005;-89
2022/12/18 09:17:18;;;;;;;34.63;18.52;;;;;;;-4.43;100.00;102548.72;5273616;28;20021;-87
2022/12/18 09:19:50;;;;;;;33.83;19.25;;;;;;;-4.40;100.00;102538.28;5291734;28;20048;-88
2022/12/18 09:26:08;;;;;;;30.13;18.42;;;;;;;-4.29;100.00;102544.34;5241650;28;20109;-86
2022/12/18 09:28:46;;;;;;;28.48;17.80;;;;;;;-4.23;100.00;102536.47;5268423;28;20026;-87
2022/12/18 09:31:24;;;;;;;31.08;16.88;;;;;;;-4.21;100.00;102528.66;5283104;28;20060;-86
2022/12/18 09:33:58;;;;;;;33.08;18.75;;;;;;;-4.18;100.00;102524.31;5277740;28;20036;-87
2022/12/18 09:36:32;;;;;;;30.25;18.63;;;;;;;-4.18;100.00;102510.41;5263237;28;20034;-86
2022/12/18 09:39:04;;;;;;;28.88;17.73;;;;;;;-4.12;100.00;102512.13;5274304;28;20139;-87
2022/12/18 09:41:47;;;;;;;31.00;18.15;;;;;;;-4.08;100.00;102509.50;5271876;28;20025;-86
2022/12/18 09:44:41;;;;;;;31.17;17.92;;;;;;;-4.02;100.00;102516.41;5261076;28;20097;-87
2022/12/18 09:47:39;;;;;;;31.17;17.58;;;;;;;-3.91;100.00;102503.31;5271845;28;20089;-87
2022/12/18 09:50:37;;;;;;;28.92;18.23;;;;;;;-3.88;100.00;102493.72;5245049;28;20057;-88
2022/12/18 09:53:15;;;;;;;;;;;;;;;-3.73;100.00;102499.75;5246911;28;20041;-86
2022/12/18 09:55:48;;;;;;;;;;;;;;;-3.66;100.00;102489.25;5253863;28;20011;-87
2022/12/18 09:58:38;;;;;;;29.52;16.55;;;;;;;-3.63;100.00;102480.53;5266233;28;19913;-86
2022/12/18 10:01:21;;;;;;;27.42;16.30;;;;;;;-3.58;100.00;102476.13;5262797;28;20131;-86
2022/12/18 10:03:54;;;;;;;30.35;16.90;;;;;;;-3.47;100.00;102486.50;5241458;28;20112;-86
2022/12/18 10:06:38;;;;;;;32.30;17.10;;;;;;;-3.32;100.00;102475.94;5261463;28;20038;-85
2022/12/18 10:09:12;;;;;;;29.75;18.00;;;;;;;-3.17;100.00;102492.31;5259041;28;20077;-86
2022/12/18 10:11:44;;;;;;;23.77;15.73;;;;;;;-3.15;100.00;102491.44;5244780;28;20030;-85
2022/12/18 10:14:27;;;;;;;26.88;15.90;;;;;;;-2.99;100.00;102488.69;5263048;28;20053;-86
2022/12/18 10:17:23;;;;;;;25.10;15.70;;;;;;;-2.93;100.00;102496.47;5260318;28;20041;-86
2022/12/18 10:20:01;;;;;;;25.92;16.25;;;;;;;-2.96;100.00;102494.75;5258969;28;20060;-86
2022/12/18 10:22:38;;;;;;;25.38;14.90;;;;;;;-2.91;100.00;102498.19;5252773;28;20030;-86
2022/12/18 10:25:15;;;;;;;26.70;15.77;;;;;;;-2.78;100.00;102483.25;5280149;28;20029;-86
2022/12/18 10:27:48;;;;;;;27.20;15.50;;;;;;;-2.67;100.00;102483.13;5270254;28;20080;-86
2022/12/18 10:30:23;;;;;;;25.70;15.73;;;;;;;-2.52;100.00;102487.31;5264180;28;20035;-86
2022/12/18 10:33:01;;;;;;;25.23;15.93;;;;;;;-2.39;100.00;102472.34;5269680;28;20021;-86
2022/12/18 10:35:33;;;;;;;24.17;15.35;;;;;;;-2.38;100.00;102464.50;5259530;28;20109;-86
2022/12/18 10:38:06;;;;;;;26.38;15.10;;;;;;;-2.27;100.00;102466.97;5258172;28;20025;-87
2022/12/18 10:41:02;;;;;;;25.80;15.20;;;;;;;-2.20;100.00;102450.31;5260925;28;20037;-85
2022/12/18 10:43:38;;;;;;;23.23;15.57;;;;;;;-2.14;100.00;102455.47;5275274;28;20133;-86
2022/12/18 10:46:10;;;;;;;21.98;14.55;;;;;;;-2.05;100.00;102437.91;5260323;28;20021;-86
2022/12/18 10:48:47;;;;;;;23.83;13.98;;;;;;;-1.93;100.00;102435.09;5263938;28;20486;-86
2022/12/18 10:51:25;;;;;;;22.42;15.63;;;;;;;-2.00;100.00;102433.47;5270248;28;20034;-86
2022/12/18 10:54:02;;;;;;;21.50;13.73;;;;;;;-1.97;100.00;102436.91;5281309;28;20021;-85
2022/12/18 10:56:36;;;;;;;22.05;14.02;;;;;;;-1.96;100.00;102435.16;5260217;28;20029;-85
2022/12/18 10:59:10;;;;;;;23.83;15.45;;;;;;;-1.97;100.00;102421.22;5282887;28;20031;-85
2022/12/18 11:01:54;;;;;;;25.17;15.20;;;;;;;-2.02;100.00;102412.56;5266243;28;20033;-85
2022/12/18 11:04:31;;;;;;;24.85;15.25;;;;;;;-2.02;100.00;102411.72;5265756;28;20083;-85
2022/12/18 11:07:05;;;;;;;;;;;;;;;-1.90;100.00;102415.00;5257700;28;20037;-86
2022/12/18 11:09:38;;;;;;;22.58;14.73;;;;;;;-2.09;100.00;102416.16;5271721;28;19913;-85
2022/12/18 11:12:17;;;;;;;25.15;14.82;;;;;;;-2.01;100.00;102416.06;5268721;28;20056;-85
2022/12/18 11:14:51;;;;;;;19.90;13.68;;;;;;;-1.97;100.00;102423.81;5270326;28;20030;-85
2022/12/18 11:17:34;;;;;;;24.98;16.25;;;;;;;-1.90;100.00;102424.59;5261489;28;20091;-85
2022/12/18 11:20:32;;;;;;;22.77;14.85;;;;;;;-1.83;100.00;102417.53;5263458;28;20025;-85
2022/12/18 11:23:13;;;;;;;23.90;15.77;;;;;;;-1.76;100.00;102406.06;5257790;28;20068;-85
2022/12/18 11:26:01;;;;;;;24.98;14.27;;;;;;;-1.77;100.00;102393.88;5258962;28;20025;-86
2022/12/18 11:28:37;;;;;;;24.52;15.18;;;;;;;-1.74;100.00;102392.06;5261050;28;20038;-86
2022/12/18 11:31:16;;;;;;;21.70;13.37;;;;;;;-1.63;100.00;102388.41;5262158;28;20505;-84
2022/12/18 11:34:13;;;;;;;24.52;15.85;;;;;;;-1.61;100.00;102381.41;5260567;28;20882;-86
2022/12/18 11:36:47;;;;;;;22.48;13.57;;;;;;;-1.54;100.00;102390.91;5255168;28;20115;-86
2022/12/18 11:39:31;;;;;;;25.75;15.85;;;;;;;-1.52;100.00;102384.72;5259411;28;20030;-86
2022/12/18 11:42:11;;;;;;;23.30;14.73;;;;;;;-1.53;100.00;102387.38;5259916;28;20176;-85
2022/12/18 11:45:12;;;;;;;23.60;14.48;;;;;;;-1.42;100.00;102388.06;5245589;28;20087;-86
2022/12/18 11:48:07;;;;;;;23.77;14.60;;;;;;;-1.39;100.00;102381.88;5253948;28;20043;-86
2022/12/18 11:50:49;;;;;;;27.65;15.50;;;;;;;-1.41;100.00;102381.91;5280995;28;20033;-86
2022/12/18 11:53:21;;;;;;;22.75;14.07;;;;;;;-1.43;100.00;102378.47;5282952;28;20021;-85